Time;durP1;ratioP1;P1;durP2;ratioP2;P2;SDS_P1;SDS_P2;PMS_P1;PMS_P2;Temp;Humidity;BMP_temperature;BMP_pressure;BME280_temperature;BME280_humidity;BME280_pressure;Samples;Min_cycle;Max_cycle;Signal;HPM_P1;HPM_P2
2022/04/07 00:02:23;;;;;;;;;1.00;1.00;;;;;9.50;93.44;-18737.06;4989577;28;9945;-70
2022/04/07 00:04:50;;;;;;;;;3.00;1.00;;;;;9.52;93.20;-18737.66;4975503;28;10613;-71
2022/04/07 00:07:16;;;;;;;;;0.50;0.50;;;;;9.53;92.97;-18737.97;4975052;28;10115;-70
2022/04/07 00:09:43;;;;;;;;;4.00;2.00;;;;;9.54;92.68;-18738.13;4974217;28;10120;-70
2022/04/07 00:12:09;;;;;;;;;1.25;1.25;;;;;9.48;92.85;-18736.47;4973410;28;10128;-70
2022/04/07 00:14:36;;;;;;;;;6.00;4.25;;;;;9.52;92.57;-18737.53;4975114;28;10033;-68
2022/04/07 00:17:03;;;;;;;;;2.50;2.50;;;;;9.53;91.92;-18737.81;4974775;28;10050;-69
2022/04/07 00:19:30;;;;;;;;;1.25;1.25;;;;;9.50;91.82;-18737.06;4989544;28;10147;-71
2022/04/07 00:21:57;;;;;;;;;1.00;1.00;;;;;9.50;92.33;-18737.06;4974674;28;9930;-69
2022/04/07 00:24:24;;;;;;;;;2.00;1.00;;;;;9.49;92.43;-18736.78;4974279;28;10034;-70
2022/04/07 00:26:50;;;;;;;;;1.00;1.00;;;;;9.48;92.74;-18736.31;4974529;28;10025;-68
2022/04/07 00:29:17;;;;;;;;;4.00;0.75;;;;;9.47;93.14;-18736.16;4971787;28;10109;-68
2022/04/07 00:31:44;;;;;;;;;0.25;0.25;;;;;9.47;93.18;-18736.16;4973389;28;10541;-70
2022/04/07 00:34:12;;;;;;;;;3.25;1.00;;;;;9.48;93.46;-18736.31;4973093;28;9800;-71
2022/04/07 00:36:41;;;;;;;;;1.50;1.50;;;;;9.50;93.18;-18737.06;4972960;28;10216;-71
2022/04/07 00:39:08;;;;;;;;;2.25;1.75;;;;;9.50;93.36;-18737.06;4972922;28;10171;-71
2022/04/07 00:41:37;;;;;;;;;1.75;1.75;;;;;9.48;93.52;-18736.47;4972984;28;10958;-70
2022/04/07 00:44:08;;;;;;;;;4.25;4.25;;;;;9.46;93.58;-18735.72;4974270;28;10063;-69
2022/04/07 00:46:38;;;;;;;;;4.25;2.50;;;;;9.47;93.45;-18736.16;4973377;28;10172;-69
2022/04/07 00:49:05;;;;;;;;;5.00;2.00;;;;;9.46;93.46;-18735.88;4965765;28;10046;-70
2022/04/07 00:51:33;;;;;;;;;1.25;1.25;;;;;9.47;93.36;-18736.00;4963875;28;10953;-70
2022/04/07 00:54:00;;;;;;;;;4.00;2.25;;;;;9.47;93.01;-18736.00;4974005;28;10258;-70
2022/04/07 00:56:27;;;;;;;;;3.75;2.00;;;;;9.47;92.60;-18736.16;4974170;28;10256;-70
2022/04/07 00:58:54;;;;;;;;;2.75;2.25;;;;;9.51;92.30;-18737.22;4973874;28;10170;-68
2022/04/07 01:01:22;;;;;;;;;1.00;0.25;;;;;9.53;92.00;-18737.81;4971864;28;10197;-70
2022/04/07 01:03:50;;;;;;;;;1.50;0.25;;;;;9.56;91.83;-18738.88;4964382;28;10104;-70
2022/04/07 01:06:18;;;;;;;;;0.00;0.00;;;;;9.54;91.54;-18738.28;4974028;28;10094;-70
2022/04/07 01:08:45;;;;;;;;;3.50;1.75;;;;;9.55;91.14;-18738.44;4971882;28;10874;-69
2022/04/07 01:11:12;;;;;;;;;3.00;2.00;;;;;9.55;91.09;-18738.56;4987636;28;10141;-69
2022/04/07 01:13:50;;;;;;;;;2.75;2.75;;;;;9.55;91.38;-18738.44;4986336;28;11084;-71
2022/04/07 01:16:18;;;;;;;;;5.75;3.00;;;;;9.56;90.91;-18738.72;4972864;28;9986;-70
2022/04/07 01:18:45;;;;;;;;;3.00;2.00;;;;;9.56;90.32;-18738.72;4973170;28;10194;-70
2022/04/07 01:21:14;;;;;;;;;2.50;1.50;;;;;9.57;90.03;-18739.03;4970649;28;10144;-70
2022/04/07 01:23:53;;;;;;;;;4.25;2.25;;;;;9.56;90.41;-18738.88;4972776;28;10037;-70
2022/04/07 01:26:21;;;;;;;;;1.50;1.50;;;;;9.59;89.67;-18739.47;4972070;28;10113;-70
2022/04/07 01:28:48;;;;;;;;;1.00;1.00;;;;;9.57;89.54;-18739.03;4971273;28;10195;-70
2022/04/07 01:31:15;;;;;;;;;3.25;2.50;;;;;9.59;89.37;-18739.47;4972171;28;10074;-70
2022/04/07 01:33:42;;;;;;;;;0.25;0.25;;;;;9.57;89.39;-18739.19;4970532;28;10307;-70
2022/04/07 01:36:10;;;;;;;;;2.00;2.00;;;;;9.60;89.35;-18739.94;4970087;28;10150;-70
2022/04/07 01:38:37;;;;;;;;;4.00;2.00;;;;;9.61;89.67;-18740.09;4970020;28;9944;-68
2022/04/07 01:41:03;;;;;;;;;3.50;2.50;;;;;9.55;90.00;-18738.44;4970132;28;9958;-70
2022/04/07 01:43:30;;;;;;;;;5.50;3.00;;;;;9.59;90.33;-18739.47;4973125;28;10178;-70
2022/04/07 01:45:57;;;;;;;;;3.00;2.00;;;;;9.60;89.87;-18739.94;4969766;28;10256;-69
2022/04/07 01:48:24;;;;;;;;;2.25;2.25;;;;;9.63;90.10;-18740.69;4984735;28;10128;-70
2022/04/07 01:50:51;;;;;;;;;2.00;1.75;;;;;9.62;90.79;-18740.53;4970917;28;10008;-70
2022/04/07 01:53:18;;;;;;;;;2.50;2.50;;;;;9.57;91.59;-18739.19;4986631;28;10159;-71
2022/04/07 01:55:45;;;;;;;;;2.50;2.50;;;;;9.59;92.37;-18739.47;4969599;28;9950;-71
2022/04/07 01:58:11;;;;;;;;;5.75;4.00;;;;;9.56;94.30;-18738.72;4980296;28;9961;-69
2022/04/07 02:00:40;;;;;;;;;2.75;1.00;;;;;9.48;96.07;-18736.47;4985832;28;10027;-71
2022/04/07 02:03:09;;;;;;;;;2.50;1.50;;;;;9.39;97.81;-18733.59;4968679;28;10298;-70
2022/04/07 02:05:36;;;;;;;;;2.50;2.00;;;;;9.36;99.23;-18732.84;4971081;28;10898;-69
2022/04/07 02:08:03;;;;;;;;;1.00;1.00;;;;;9.30;100.00;-18731.03;4968273;28;11007;-70
2022/04/07 02:10:30;;;;;;;;;3.00;2.00;;;;;9.24;100.00;-18729.38;4971087;28;10192;-71
2022/04/07 02:12:58;;;;;;;;;1.50;1.50;;;;;9.19;100.00;-18727.72;4971367;28;10368;-69
2022/04/07 02:15:26;;;;;;;;;2.00;2.00;;;;;9.16;100.00;-18726.94;4959196;28;10245;-70
2022/04/07 02:17:53;;;;;;;;;0.75;0.75;;;;;9.11;100.00;-18725.28;4959714;28;10354;-69
2022/04/07 02:20:20;;;;;;;;;5.00;5.00;;;;;9.07;100.00;-18724.22;4970643;28;10013;-71
2022/04/07 02:22:46;;;;;;;;;1.00;1.00;;;;;9.03;100.00;-18723.03;4972412;28;10354;-71
2022/04/07 02:25:13;;;;;;;;;2.25;2.25;;;;;9.01;100.00;-18722.28;4972087;28;10378;-70
2022/04/07 02:27:41;;;;;;;;;4.00;3.00;;;;;8.99;100.00;-18721.66;4987252;28;10167;-71
2022/04/07 02:30:11;;;;;;;;;4.50;2.25;;;;;8.98;100.00;-18721.53;4972081;28;10421;-72
2022/04/07 02:32:38;;;;;;;;;10.00;5.50;;;;;8.99;100.00;-18721.81;4972164;28;10251;-71
2022/04/07 02:35:05;;;;;;;;;6.25;2.25;;;;;8.98;100.00;-18721.38;4987138;28;10295;-71
2022/04/07 02:37:32;;;;;;;;;3.75;3.75;;;;;9.02;100.00;-18722.56;4972015;28;10334;-70
2022/04/07 02:39:57;;;;;;;;;5.25;3.75;;;;;9.01;100.00;-18722.28;4971622;28;11047;-70
2022/04/07 02:42:23;;;;;;;;;6.50;3.50;;;;;9.02;100.00;-18722.56;4971974;28;8852;-70
2022/04/07 02:44:50;;;;;;;;;1.00;1.00;;;;;9.01;100.00;-18722.44;4972043;28;10249;-71
2022/04/07 02:47:17;;;;;;;;;7.25;2.50;;;;;8.97;100.00;-18721.22;4969433;28;10233;-71
2022/04/07 02:49:44;;;;;;;;;6.00;3.00;;;;;9.01;100.00;-18722.44;4971621;28;10248;-68
2022/04/07 02:52:10;;;;;;;;;4.75;2.00;;;;;9.06;100.00;-18723.78;4971799;28;10194;-71
2022/04/07 02:54:37;;;;;;;;;5.00;4.50;;;;;9.02;100.00;-18722.72;4969582;28;10560;-72
2022/04/07 02:57:04;;;;;;;;;5.00;1.75;;;;;9.06;99.46;-18723.94;4969875;28;10391;-70
2022/04/07 02:59:32;;;;;;;;;10.25;6.25;;;;;9.10;98.07;-18725.00;4970411;28;10390;-70
2022/04/07 03:01:59;;;;;;;;;7.25;6.00;;;;;9.12;97.42;-18725.75;4971515;28;10394;-71
2022/04/07 03:04:25;;;;;;;;;12.75;6.00;;;;;9.16;97.30;-18726.81;4967252;28;10422;-70
2022/04/07 03:06:53;;;;;;;;;3.50;3.50;;;;;9.17;96.80;-18727.25;4970074;28;10514;-70
2022/04/07 03:09:20;;;;;;;;;2.50;2.00;;;;;9.15;96.66;-18726.66;4970477;28;10206;-68
2022/04/07 03:11:47;;;;;;;;;6.50;6.00;;;;;9.19;96.10;-18727.72;4970175;28;10107;-71
2022/04/07 03:14:14;;;;;;;;;6.25;4.00;;;;;9.21;96.04;-18728.31;4971385;28;10201;-70
2022/04/07 03:16:43;;;;;;;;;4.50;4.00;;;;;9.21;95.72;-18728.31;4971332;28;10214;-70
2022/04/07 03:19:10;;;;;;;;;5.50;2.00;;;;;9.23;96.10;-18728.91;4971407;28;10250;-70
2022/04/07 03:21:40;;;;;;;;;5.00;3.50;;;;;9.19;96.23;-18727.72;4970192;28;10113;-70
2022/04/07 03:24:07;;;;;;;;;5.00;3.00;;;;;9.19;96.31;-18727.88;4970902;28;10257;-69
2022/04/07 03:26:54;;;;;;;;;6.00;3.00;;;;;9.22;96.35;-18728.75;4971505;28;10903;-69
2022/04/07 03:29:21;;;;;;;;;6.50;1.75;;;;;9.22;97.21;-18728.63;4972014;28;10170;-69
2022/04/07 03:31:48;;;;;;;;;5.75;2.50;;;;;9.14;97.71;-18726.19;4970425;28;10065;-70
2022/04/07 03:34:15;;;;;;;;;3.50;3.50;;;;;9.09;98.27;-18724.84;4971141;28;10268;-70
2022/04/07 03:36:42;;;;;;;;;7.00;2.50;;;;;9.06;98.53;-18723.94;4971284;28;10237;-70
2022/04/07 03:39:09;;;;;;;;;7.50;4.50;;;;;9.10;98.81;-18725.00;4969381;28;12567;-69
2022/04/07 03:41:36;;;;;;;;;4.75;1.75;;;;;9.09;98.78;-18724.69;4968026;28;10922;-70
2022/04/07 03:44:03;;;;;;;;;4.00;4.00;;;;;9.05;99.03;-18723.63;4969022;28;10293;-69
2022/04/07 03:46:29;;;;;;;;;4.50;2.25;;;;;9.05;99.07;-18723.63;4968462;28;10178;-71
2022/04/07 03:48:56;;;;;;;;;2.00;2.00;;;;;9.05;98.99;-18723.47;4963709;28;10293;-70
2022/04/07 03:51:22;;;;;;;;;5.75;3.25;;;;;9.04;99.31;-18723.34;4969302;28;10947;-71
2022/04/07 03:53:49;;;;;;;;;1.00;0.75;;;;;9.04;99.83;-18723.19;4967217;28;10124;-70
2022/04/07 03:56:15;;;;;;;;;5.50;5.00;;;;;9.02;100.00;-18722.72;4971273;28;10094;-70
2022/04/07 03:58:42;;;;;;;;;7.50;6.00;;;;;8.99;100.00;-18721.66;4968054;28;10390;-70
2022/04/07 04:01:09;;;;;;;;;7.25;2.50;;;;;8.94;100.00;-18720.47;4970551;28;11092;-70
2022/04/07 04:03:35;;;;;;;;;5.50;1.00;;;;;8.92;100.00;-18719.84;4966945;28;10141;-70
2022/04/07 04:06:02;;;;;;;;;2.00;2.00;;;;;8.86;100.00;-18718.03;4966321;28;10327;-70
2022/04/07 04:08:29;;;;;;;;;7.50;4.00;;;;;8.82;100.00;-18716.84;4969961;28;10239;-71
2022/04/07 04:10:55;;;;;;;;;5.50;3.00;;;;;8.86;100.00;-18717.91;4969767;28;11110;-71
2022/04/07 04:13:22;;;;;;;;;5.00;5.00;;;;;8.86;100.00;-18717.91;4969288;28;11251;-70
2022/04/07 04:15:48;;;;;;;;;5.75;5.50;;;;;8.83;100.00;-18717.00;4968903;28;10265;-70
2022/04/07 04:18:15;;;;;;;;;4.00;4.00;;;;;8.82;100.00;-18716.69;4984159;28;10516;-71
2022/04/07 04:20:41;;;;;;;;;5.00;3.50;;;;;8.81;100.00;-18716.53;4969935;28;10175;-70
2022/04/07 04:23:08;;;;;;;;;6.00;6.00;;;;;8.80;100.00;-18716.22;4967126;28;10156;-70
2022/04/07 04:25:35;;;;;;;;;8.75;4.50;;;;;8.82;100.00;-18716.69;4969960;28;11034;-71
2022/04/07 04:28:01;;;;;;;;;1.50;1.50;;;;;8.79;100.00;-18715.78;4972776;28;11243;-71
2022/04/07 04:30:30;;;;;;;;;5.50;3.25;;;;;8.80;100.00;-18716.22;4962669;28;10889;-70
2022/04/07 04:32:56;;;;;;;;;4.00;3.25;;;;;8.78;100.00;-18715.47;4977568;28;10428;-71
2022/04/07 04:35:22;;;;;;;;;5.00;3.75;;;;;8.78;100.00;-18715.47;4989139;28;10389;-71
2022/04/07 04:37:49;;;;;;;;;5.25;2.25;;;;;8.78;100.00;-18715.63;4972813;28;10225;-70
2022/04/07 04:40:15;;;;;;;;;6.00;2.50;;;;;8.78;100.00;-18715.63;4973546;28;10243;-70
2022/04/07 04:42:43;;;;;;;;;6.00;5.00;;;;;8.77;100.00;-18715.31;4972952;28;11071;-70
2022/04/07 04:45:09;;;;;;;;;5.50;3.25;;;;;8.75;100.00;-18714.72;4973138;28;10343;-70
2022/04/07 04:47:37;;;;;;;;;2.75;2.75;;;;;8.75;100.00;-18714.72;4972975;28;10422;-70
2022/04/07 04:50:05;;;;;;;;;3.00;2.00;;;;;8.74;100.00;-18714.28;4973605;28;10276;-69
2022/04/07 04:52:31;;;;;;;;;3.75;3.00;;;;;8.70;100.00;-18713.22;4972067;28;11022;-70
2022/04/07 04:54:58;;;;;;;;;2.00;1.00;;;;;8.67;100.00;-18712.31;4972997;28;11194;-70
2022/04/07 04:57:24;;;;;;;;;4.25;3.50;;;;;8.68;100.00;-18712.47;4972814;28;10179;-70
2022/04/07 04:59:51;;;;;;;;;3.25;3.00;;;;;8.67;100.00;-18712.16;4971636;28;10327;-70
2022/04/07 05:02:17;;;;;;;;;1.75;1.75;;;;;8.67;100.00;-18712.31;4972980;28;10305;-69
2022/04/07 05:04:48;;;;;;;;;3.25;2.00;;;;;8.64;100.00;-18711.56;4971791;28;10224;-70
2022/04/07 05:07:14;;;;;;;;;2.50;2.00;;;;;8.61;100.00;-18710.50;4972650;28;10277;-71
2022/04/07 05:09:41;;;;;;;;;1.25;1.25;;;;;8.56;100.00;-18708.97;4972047;28;10294;-70
2022/04/07 05:12:07;;;;;;;;;1.75;1.75;;;;;7.93;100.00;-18690.41;4969844;28;10149;-70
2022/04/07 05:14:34;;;;;;;;;0.00;0.00;;;;;7.16;97.53;-18667.28;4970944;28;10321;-70
2022/04/07 05:17:00;;;;;;;;;0.00;0.00;;;;;6.71;95.85;-18653.97;4970314;28;10230;-69
2022/04/07 05:19:27;;;;;;;;;0.00;0.00;;;;;5.88;91.75;-18629.34;4972256;28;10316;-70
2022/04/07 05:21:53;;;;;;;;;0.00;0.00;;;;;5.80;92.55;-18626.91;4966114;28;10805;-69
2022/04/07 05:24:20;;;;;;;;;0.00;0.00;;;;;5.78;92.78;-18626.31;4971190;28;10427;-69
2022/04/07 05:26:46;;;;;;;;;0.00;0.00;;;;;5.73;93.58;-18624.94;4969022;28;10494;-69
2022/04/07 05:29:13;;;;;;;;;0.00;0.00;;;;;5.73;93.73;-18624.81;4970106;28;10733;-69
2022/04/07 05:31:40;;;;;;;;;0.25;0.25;;;;;5.70;94.88;-18623.88;4969941;28;10798;-69
2022/04/07 05:34:06;;;;;;;;;0.00;0.00;;;;;5.75;95.19;-18625.56;4969874;28;10860;-69
2022/04/07 05:36:32;;;;;;;;;0.00;0.00;;;;;5.74;95.67;-18625.25;4972478;28;10661;-69
2022/04/07 05:38:59;;;;;;;;;0.00;0.00;;;;;5.76;96.26;-18625.72;4971443;28;10819;-70
2022/04/07 05:41:25;;;;;;;;;0.00;0.00;;;;;5.73;96.65;-18624.81;4970434;28;10655;-68
2022/04/07 05:43:52;;;;;;;;;0.25;0.00;;;;;5.68;97.38;-18623.44;4957043;28;11773;-70
2022/04/07 05:46:18;;;;;;;;;0.75;0.75;;;;;5.68;97.71;-18623.44;4968666;28;10888;-71
2022/04/07 05:48:45;;;;;;;;;0.50;0.00;;;;;5.67;98.75;-18622.97;4972851;28;11101;-69
2022/04/07 05:51:12;;;;;;;;;0.00;0.00;;;;;5.78;99.19;-18626.31;4971639;28;11001;-69
2022/04/07 05:53:39;;;;;;;;;0.00;0.00;;;;;5.82;99.62;-18627.66;4964223;28;11070;-70
2022/04/07 05:56:05;;;;;;;;;0.50;0.00;;;;;5.88;99.88;-18629.34;4971682;28;11090;-70
2022/04/07 05:58:32;;;;;;;;;5.75;1.00;;;;;5.91;100.00;-18630.09;4970963;28;10749;-69
2022/04/07 06:00:58;;;;;;;;;0.00;0.00;;;;;5.97;100.00;-18631.91;4972205;28;11056;-69
2022/04/07 06:03:25;;;;;;;;;0.00;0.00;;;;;6.08;100.00;-18635.25;4966075;28;10830;-71
2022/04/07 06:05:54;;;;;;;;;1.00;0.00;;;;;6.00;100.00;-18632.81;4964691;28;10823;-70
2022/04/07 06:08:21;;;;;;;;;1.00;0.00;;;;;6.07;100.00;-18635.09;4972733;28;10820;-69
2022/04/07 06:10:48;;;;;;;;;0.00;0.00;;;;;6.17;100.00;-18637.97;4971632;28;10776;-69
2022/04/07 06:13:14;;;;;;;;;0.00;0.00;;;;;6.21;100.00;-18639.03;4966204;28;10781;-69
2022/04/07 06:15:42;;;;;;;;;1.25;0.00;;;;;6.27;100.00;-18640.84;4969101;28;10689;-70
2022/04/07 06:18:09;;;;;;;;;0.00;0.00;;;;;6.22;99.09;-18639.31;4963930;28;10747;-69
2022/04/07 06:20:35;;;;;;;;;0.00;0.00;;;;;6.23;98.02;-18639.78;4970850;28;10755;-71
2022/04/07 06:23:02;;;;;;;;;0.00;0.00;;;;;6.51;99.98;-18648.09;4971124;28;10688;-70
2022/04/07 06:25:29;;;;;;;;;0.00;0.00;;;;;6.39;98.87;-18644.47;4969443;28;10899;-71
2022/04/07 06:27:56;;;;;;;;;2.00;0.00;;;;;6.35;98.21;-18643.41;4971170;28;11133;-70
2022/04/07 06:30:22;;;;;;;;;0.00;0.00;;;;;6.32;98.09;-18642.34;4972016;28;10754;-70
2022/04/07 06:32:49;;;;;;;;;0.00;0.00;;;;;6.20;97.14;-18638.72;4969303;28;10844;-69
2022/04/07 06:38:04;;;;;;;;;1.00;0.00;;;;;6.21;97.58;-18639.03;5556920;23;10584;-73
2022/04/07 06:40:31;;;;;;;;;0.00;0.00;;;;;6.17;96.93;-18637.97;4987417;28;11307;-73
2022/04/07 06:42:59;;;;;;;;;0.00;0.00;;;;;6.20;96.80;-18638.88;4991529;28;10779;-75
2022/04/07 06:45:26;;;;;;;;;1.75;0.75;;;;;6.26;97.53;-18640.53;4989524;28;10736;-72
2022/04/07 06:47:53;;;;;;;;;0.00;0.00;;;;;6.23;96.68;-18639.78;4983847;28;11582;-72
2022/04/07 06:50:20;;;;;;;;;0.00;0.00;;;;;6.22;96.40;-18639.47;4957810;28;10752;-73
2022/04/07 06:52:48;;;;;;;;;0.00;0.00;;;;;6.31;96.10;-18642.03;4980799;23;10677;-67
2022/04/07 06:55:16;;;;;;;;;0.00;0.00;;;;;6.32;95.92;-18642.34;4950030;28;10752;-69
2022/04/07 06:57:56;;;;;;;;;0.00;0.00;;;;;6.33;95.96;-18642.78;4951416;28;10695;-67
2022/04/07 07:00:27;;;;;;;;;0.00;0.00;;;;;6.37;96.08;-18643.84;4952235;28;10780;-71
2022/04/07 07:02:55;;;;;;;;;0.00;0.00;;;;;6.42;96.14;-18645.38;4941734;28;10700;-68
2022/04/07 07:05:24;;;;;;;;;0.00;0.00;;;;;6.41;95.82;-18645.22;4950402;28;10698;-68
2022/04/07 07:07:50;;;;;;;;;0.75;0.00;;;;;6.39;95.78;-18644.59;4952433;28;10708;-67
2022/04/07 07:10:29;;;;;;;;;0.00;0.00;;;;;6.45;95.99;-18646.44;4951822;28;10656;-69
2022/04/07 07:12:59;;;;;;;;;0.00;0.00;;;;;6.46;96.28;-18646.56;4951442;28;11457;-69
2022/04/07 07:15:26;;;;;;;;;0.00;0.00;;;;;6.51;96.25;-18647.94;4952463;28;10762;-69
2022/04/07 07:17:52;;;;;;;;;0.00;0.00;;;;;6.56;96.33;-18649.59;4966838;28;10888;-69
2022/04/07 07:20:19;;;;;;;;;0.00;0.00;;;;;6.59;94.94;-18650.34;4951554;28;10763;-69
2022/04/07 07:22:45;;;;;;;;;1.00;0.00;;;;;6.65;94.92;-18652.31;4932001;28;10802;-69
2022/04/07 07:25:13;;;;;;;;;0.00;0.00;;;;;6.81;95.34;-18656.84;4947430;28;10689;-68
2022/04/07 07:27:42;;;;;;;;;0.00;0.00;;;;;6.79;93.69;-18656.41;4952148;28;10662;-68
2022/04/07 07:30:10;;;;;;;;;0.00;0.00;;;;;6.77;92.76;-18655.78;4951577;28;10619;-70
2022/04/07 07:32:38;;;;;;;;;0.00;0.00;;;;;6.73;92.29;-18654.59;4952161;28;10643;-69
2022/04/07 07:35:06;;;;;;;;;0.00;0.00;;;;;6.86;92.63;-18658.38;4950495;29;10837;-68
2022/04/07 07:37:33;;;;;;;;;0.00;0.00;;;;;6.94;92.77;-18660.94;4933312;29;10499;-69
2022/04/07 07:40:08;;;;;;;;;0.00;0.00;;;;;7.01;93.87;-18662.91;4952522;28;10596;-68
2022/04/07 07:42:37;;;;;;;;;0.00;0.00;;;;;7.18;93.60;-18667.88;4950972;28;10701;-69
2022/04/07 07:45:05;;;;;;;;;0.00;0.00;;;;;7.28;92.73;-18670.91;4951689;28;10594;-69
2022/04/07 07:47:33;;;;;;;;;0.00;0.00;;;;;7.42;92.66;-18675.13;4945735;28;10652;-69
2022/04/07 07:50:01;;;;;;;;;0.00;0.00;;;;;7.44;92.55;-18675.59;4951721;28;10595;-69
2022/04/07 07:52:28;;;;;;;;;1.00;0.00;;;;;7.41;91.81;-18675.00;4950705;28;10616;-69
2022/04/07 07:54:54;;;;;;;;;0.00;0.00;;;;;8.21;91.61;-18698.72;4950491;28;10739;-70
2022/04/07 07:57:21;;;;;;;;;0.00;0.00;;;;;8.47;88.28;-18706.28;4951743;28;10998;-68
2022/04/07 07:59:49;;;;;;;;;0.00;0.00;;;;;8.45;88.42;-18705.66;4952125;28;10452;-68
2022/04/07 08:02:15;;;;;;;;;0.00;0.00;;;;;8.92;88.89;-18719.84;4940532;28;10319;-67
2022/04/07 08:04:41;;;;;;;;;0.00;0.00;;;;;9.40;86.42;-18733.91;4936781;29;10395;-67
2022/04/07 08:07:08;;;;;;;;;0.00;0.00;;;;;9.67;84.69;-18741.91;4962064;28;10469;-69
2022/04/07 08:09:34;;;;;;;;;0.00;0.00;;;;;9.84;84.10;-18747.19;4951771;28;10295;-67
2022/04/07 08:12:02;;;;;;;;;0.00;0.00;;;;;10.02;83.71;-18752.31;4936913;29;10313;-70
2022/04/07 08:14:30;;;;;;;;;0.25;0.25;;;;;10.09;81.11;-18754.56;4936511;29;10981;-68
2022/04/07 08:16:56;;;;;;;;;0.00;0.00;;;;;10.20;81.20;-18757.75;4952471;28;10819;-68
2022/04/07 08:19:23;;;;;;;;;0.00;0.00;;;;;10.20;81.96;-18757.75;4953949;28;10823;-69
2022/04/07 08:21:50;;;;;;;;;0.00;0.00;;;;;10.46;80.48;-18765.44;4951718;28;10066;-67
2022/04/07 08:24:18;;;;;;;;;0.00;0.00;;;;;10.46;79.62;-18765.44;4955425;28;9989;-67
2022/04/07 08:26:45;;;;;;;;;0.50;0.00;;;;;10.33;78.51;-18761.53;4953718;28;10100;-68
2022/04/07 08:29:12;;;;;;;;;0.00;0.00;;;;;10.36;79.29;-18762.56;4954475;28;9917;-69
2022/04/07 08:31:38;;;;;;;;;0.00;0.00;;;;;10.46;78.94;-18765.44;4955317;28;10099;-68
2022/04/07 08:34:05;;;;;;;;;0.25;0.25;;;;;10.53;79.11;-18767.56;4954905;28;9875;-69
2022/04/07 08:36:35;;;;;;;;;1.50;0.00;;;;;10.58;78.24;-18768.91;4953778;28;9880;-68
2022/04/07 08:39:02;;;;;;;;;0.25;0.25;;;;;10.42;76.82;-18764.38;4953490;28;9862;-68
2022/04/07 08:41:31;;;;;;;;;2.75;0.50;;;;;10.83;76.80;-18776.47;4953724;28;9857;-68
2022/04/07 08:43:58;;;;;;;;;0.00;0.00;;;;;10.90;74.65;-18778.41;4954816;28;9884;-68
2022/04/07 08:46:31;;;;;;;;;3.25;1.75;;;;;10.64;76.15;-18770.72;4955029;28;9859;-72
2022/04/07 08:49:04;;;;;;;;;0.00;0.00;;;;;10.78;74.80;-18775.09;4968968;28;9731;-68
2022/04/07 08:51:31;;;;;;;;;1.25;1.25;;;;;10.70;74.13;-18772.53;4954693;28;9767;-68
2022/04/07 08:53:59;;;;;;;;;1.25;1.00;;;;;10.38;74.67;-18763.03;4955318;28;10078;-68
2022/04/07 08:56:26;;;;;;;;;4.00;1.25;;;;;10.11;76.26;-18755.19;4954703;28;9893;-68
2022/04/07 08:58:55;;;;;;;;;2.00;2.00;;;;;10.05;75.56;-18753.22;4944407;28;9895;-71
2022/04/07 09:01:22;;;;;;;;;1.00;0.00;;;;;9.94;74.16;-18750.06;4950413;28;9970;-68
2022/04/07 09:03:48;;;;;;;;;0.25;0.00;;;;;9.92;73.32;-18749.28;4947772;28;9939;-68
2022/04/07 09:06:15;;;;;;;;;2.50;2.00;;;;;10.17;70.88;-18757.00;4954911;28;10078;-67
2022/04/07 09:08:42;;;;;;;;;1.00;0.00;;;;;10.04;70.69;-18753.06;4954420;28;9962;-68
2022/04/07 09:11:10;;;;;;;;;1.00;0.00;;;;;10.01;71.04;-18752.16;4953794;28;9992;-68
2022/04/07 09:13:44;;;;;;;;;3.50;1.50;;;;;10.24;70.24;-18758.81;4953719;28;10591;-68
2022/04/07 09:16:14;;;;;;;;;2.50;1.00;;;;;10.25;68.14;-18759.25;4954353;28;10088;-69
2022/04/07 09:18:45;;;;;;;;;1.50;0.75;;;;;10.63;68.65;-18770.41;4953899;28;10015;-69
2022/04/07 09:21:23;;;;;;;;;0.50;0.00;;;;;10.57;68.18;-18768.63;4938569;28;9886;-69
2022/04/07 09:23:49;;;;;;;;;1.50;1.50;;;;;10.55;67.41;-18768.00;4939497;28;9993;-69
2022/04/07 09:26:16;;;;;;;;;0.00;0.00;;;;;10.62;67.51;-18770.13;4953067;28;9878;-68
2022/04/07 09:28:43;;;;;;;;;0.75;0.25;;;;;10.37;67.30;-18762.88;4968990;28;9622;-68
2022/04/07 09:31:16;;;;;;;;;0.25;0.25;;;;;10.30;67.15;-18760.78;4954688;28;9798;-68
2022/04/07 09:33:54;;;;;;;;;0.00;0.00;;;;;10.26;68.38;-18759.41;4937385;29;9939;-69
2022/04/07 09:36:22;;;;;;;;;1.00;1.00;;;;;10.11;68.22;-18755.03;4934957;29;9948;-68
2022/04/07 09:38:52;;;;;;;;;0.00;0.00;;;;;10.13;68.94;-18755.63;4944538;28;10007;-68
2022/04/07 09:41:20;;;;;;;;;0.25;0.00;;;;;10.08;68.30;-18754.13;4952645;28;10160;-69
2022/04/07 09:43:49;;;;;;;;;1.00;1.00;;;;;10.14;67.13;-18755.94;4945640;28;9889;-69
2022/04/07 09:46:18;;;;;;;;;1.00;0.25;;;;;10.45;67.05;-18765.16;4953626;28;10575;-68
2022/04/07 09:48:58;;;;;;;;;0.00;0.00;;;;;10.35;66.93;-18762.13;4953539;28;10043;-68
2022/04/07 09:51:25;;;;;;;;;0.75;0.50;;;;;10.21;67.88;-18757.91;4953551;28;9854;-69
2022/04/07 09:53:56;;;;;;;;;1.25;0.75;;;;;10.12;68.62;-18755.47;4953396;28;9889;-69
2022/04/07 09:56:27;;;;;;;;;0.00;0.00;;;;;9.99;67.25;-18751.56;4953584;28;9841;-68
2022/04/07 09:58:55;;;;;;;;;0.75;0.75;;;;;9.97;68.66;-18750.81;4951767;28;9849;-69
2022/04/07 10:01:25;;;;;;;;;0.00;0.00;;;;;9.82;69.27;-18746.44;4953678;28;10074;-69
2022/04/07 10:03:52;;;;;;;;;2.25;1.00;;;;;9.71;69.07;-18743.09;4967317;28;10019;-68
2022/04/07 10:06:19;;;;;;;;;2.25;2.00;;;;;9.66;69.45;-18741.75;4953197;28;10092;-68
2022/04/07 10:08:49;;;;;;;;;1.00;1.00;;;;;9.62;70.47;-18740.38;4951849;28;10251;-67
2022/04/07 10:11:17;;;;;;;;;1.75;1.00;;;;;9.55;69.57;-18738.56;4951767;28;10156;-68
2022/04/07 10:13:45;;;;;;;;;1.00;1.00;;;;;9.65;70.19;-18741.28;4947326;28;11196;-69
2022/04/07 10:16:32;;;;;;;;;1.00;1.00;;;;;9.62;69.98;-18740.38;4933906;29;10182;-73
2022/04/07 10:19:09;;;;;;;;;1.75;1.50;;;;;9.59;70.10;-18739.47;4934015;29;11004;-70
2022/04/07 10:21:51;;;;;;;;;1.75;1.75;;;;;9.66;70.00;-18741.75;4947057;28;10081;-68
2022/04/07 10:24:34;;;;;;;;;1.50;0.75;;;;;9.68;69.85;-18742.34;4942774;29;10141;-68
2022/04/07 10:27:23;;;;;;;;;1.25;0.50;;;;;9.66;70.12;-18741.59;4952243;28;10194;-68
2022/04/07 10:30:11;;;;;;;;;2.00;1.00;;;;;9.73;69.83;-18743.88;4952385;28;10112;-68
2022/04/07 10:32:43;;;;;;;;;2.75;1.50;;;;;9.88;69.82;-18748.38;4953063;28;10312;-67
2022/04/07 10:35:31;;;;;;;;;3.00;1.50;;;;;9.95;69.21;-18750.19;4967671;28;10119;-68
2022/04/07 10:37:59;;;;;;;;;4.50;1.75;;;;;10.35;68.15;-18762.13;4951711;28;10108;-69
2022/04/07 10:40:48;;;;;;;;;1.50;1.50;;;;;10.45;67.24;-18765.28;4946592;28;10193;-69
2022/04/07 10:43:17;;;;;;;;;1.00;0.50;;;;;10.66;66.23;-18771.47;4933991;29;10178;-67
2022/04/07 10:45:48;;;;;;;;;1.00;1.00;;;;;10.84;65.76;-18776.59;4933390;29;10037;-68
2022/04/07 10:48:25;;;;;;;;;1.00;1.00;;;;;10.57;67.50;-18768.63;4932919;28;10302;-68
2022/04/07 10:50:58;;;;;;;;;2.00;1.00;;;;;10.79;67.33;-18775.41;4952285;28;9954;-69
2022/04/07 10:53:39;;;;;;;;;1.50;1.50;;;;;11.14;65.34;-18785.50;4952022;28;9846;-69
2022/04/07 10:56:39;;;;;;;;;1.00;1.00;;;;;11.04;64.47;-18782.63;4951731;28;9888;-68
2022/04/07 10:59:19;;;;;;;;;0.75;0.75;;;;;11.29;63.85;-18790.03;4952792;28;9766;-68
2022/04/07 11:02:04;;;;;;;;;1.00;0.75;;;;;10.99;64.02;-18781.13;4952563;28;9983;-68
2022/04/07 11:04:32;;;;;;;;;1.75;0.00;;;;;10.73;62.34;-18773.44;4950880;28;9786;-68
2022/04/07 11:07:02;;;;;;;;;4.50;2.00;;;;;10.96;63.18;-18780.22;4947881;28;9783;-68
2022/04/07 11:10:11;;;;;;;;;1.75;1.00;;;;;11.33;63.08;-18791.38;4949541;28;9996;-68
2022/04/07 11:12:43;;;;;;;;;2.00;2.00;;;;;11.32;62.71;-18791.09;4951289;28;10575;-69
2022/04/07 11:15:33;;;;;;;;;1.00;0.25;;;;;11.71;61.39;-18802.56;4950748;28;9873;-67
2022/04/07 11:18:03;;;;;;;;;0.50;0.50;;;;;11.49;61.34;-18796.06;4952076;28;10395;-68
2022/04/07 11:20:29;;;;;;;;;1.25;1.25;;;;;11.99;61.10;-18811.00;4967094;28;9984;-71
2022/04/07 11:23:04;;;;;;;;;2.50;2.25;;;;;11.87;60.25;-18807.38;4952349;28;9908;-70
2022/04/07 11:25:39;;;;;;;;;1.75;1.75;;;;;11.75;58.89;-18803.75;4952466;28;9854;-69
2022/04/07 11:28:22;;;;;;;;;2.00;0.00;;;;;11.66;59.86;-18801.03;4952827;28;9877;-68
2022/04/07 11:30:49;;;;;;;;;1.50;1.00;;;;;11.50;59.47;-18796.22;4953170;28;9665;-71
2022/04/07 11:33:18;;;;;;;;;2.00;1.75;;;;;11.44;60.22;-18794.56;4952111;28;9818;-69
2022/04/07 11:36:00;;;;;;;;;0.00;0.00;;;;;11.88;57.52;-18807.53;4953131;28;9983;-70
2022/04/07 11:38:27;;;;;;;;;2.00;1.00;;;;;12.21;56.88;-18817.47;4956679;28;10468;-69
2022/04/07 11:41:09;;;;;;;;;2.50;1.00;;;;;12.26;57.20;-18818.97;4956481;28;9782;-69
2022/04/07 11:43:45;;;;;;;;;2.00;2.00;;;;;12.15;57.58;-18815.53;4943285;28;9731;-69